sensor_id;sensor_type;location;lat;lon;timestamp;P1;durP1;ratioP1;P2;durP2;ratioP2
49758;SDS011;70329;45.524;10.194;2023-11-18T00:01:32;6.53;;;2.40;;
49758;SDS011;70329;45.524;10.194;2023-11-18T00:04:00;6.82;;;2.58;;
49758;SDS011;70329;45.524;10.194;2023-11-18T00:06:27;5.22;;;2.13;;
49758;SDS011;70329;45.524;10.194;2023-11-18T00:08:54;4.95;;;2.10;;
49758;SDS011;70329;45.524;10.194;2023-11-18T00:11:21;6.25;;;2.30;;
49758;SDS011;70329;45.524;10.194;2023-11-18T00:13:48;4.90;;;2.40;;
49758;SDS011;70329;45.524;10.194;2023-11-18T00:18:43;4.38;;;2.20;;
49758;SDS011;70329;45.524;10.194;2023-11-18T00:21:09;6.40;;;2.72;;
49758;SDS011;70329;45.524;10.194;2023-11-18T00:26:03;3.85;;;2.25;;
49758;SDS011;70329;45.524;10.194;2023-11-18T00:28:33;5.95;;;2.55;;
49758;SDS011;70329;45.524;10.194;2023-11-18T00:31:00;4.82;;;2.58;;
49758;SDS011;70329;45.524;10.194;2023-11-18T00:33:26;4.85;;;2.53;;
49758;SDS011;70329;45.524;10.194;2023-11-18T00:38:20;5.05;;;2.03;;
49758;SDS011;70329;45.524;10.194;2023-11-18T00:40:46;6.93;;;2.70;;
49758;SDS011;70329;45.524;10.194;2023-11-18T00:43:13;4.85;;;2.38;;
49758;SDS011;70329;45.524;10.194;2023-11-18T00:45:39;5.40;;;2.22;;
49758;SDS011;70329;45.524;10.194;2023-11-18T00:48:07;4.90;;;2.25;;
49758;SDS011;70329;45.524;10.194;2023-11-18T00:50:34;4.40;;;2.03;;
49758;SDS011;70329;45.524;10.194;2023-11-18T00:53:01;3.33;;;1.85;;
49758;SDS011;70329;45.524;10.194;2023-11-18T00:55:28;3.17;;;1.80;;
49758;SDS011;70329;45.524;10.194;2023-11-18T00:57:53;4.97;;;2.05;;
49758;SDS011;70329;45.524;10.194;2023-11-18T01:00:20;4.33;;;2.33;;
49758;SDS011;70329;45.524;10.194;2023-11-18T01:02:48;6.00;;;2.10;;
49758;SDS011;70329;45.524;10.194;2023-11-18T01:05:16;5.13;;;1.95;;
49758;SDS011;70329;45.524;10.194;2023-11-18T01:07:41;6.97;;;2.40;;
49758;SDS011;70329;45.524;10.194;2023-11-18T01:10:08;4.40;;;1.83;;
49758;SDS011;70329;45.524;10.194;2023-11-18T01:12:35;6.30;;;2.17;;
49758;SDS011;70329;45.524;10.194;2023-11-18T01:15:02;4.03;;;1.90;;
49758;SDS011;70329;45.524;10.194;2023-11-18T01:17:28;4.40;;;2.22;;
49758;SDS011;70329;45.524;10.194;2023-11-18T01:19:54;4.38;;;2.00;;
49758;SDS011;70329;45.524;10.194;2023-11-18T01:22:20;5.32;;;1.77;;
49758;SDS011;70329;45.524;10.194;2023-11-18T01:24:47;6.17;;;2.40;;
49758;SDS011;70329;45.524;10.194;2023-11-18T01:29:41;5.07;;;2.00;;
49758;SDS011;70329;45.524;10.194;2023-11-18T01:32:07;3.88;;;1.85;;
49758;SDS011;70329;45.524;10.194;2023-11-18T01:34:37;4.35;;;1.70;;
49758;SDS011;70329;45.524;10.194;2023-11-18T01:37:09;3.33;;;1.58;;
49758;SDS011;70329;45.524;10.194;2023-11-18T01:39:36;3.95;;;1.70;;
49758;SDS011;70329;45.524;10.194;2023-11-18T01:44:29;3.67;;;1.85;;
49758;SDS011;70329;45.524;10.194;2023-11-18T01:46:57;3.92;;;1.65;;
49758;SDS011;70329;45.524;10.194;2023-11-18T01:49:23;4.53;;;1.70;;
49758;SDS011;70329;45.524;10.194;2023-11-18T01:51:53;4.13;;;1.75;;
49758;SDS011;70329;45.524;10.194;2023-11-18T01:54:23;4.53;;;1.88;;
49758;SDS011;70329;45.524;10.194;2023-11-18T01:56:49;2.95;;;1.58;;
49758;SDS011;70329;45.524;10.194;2023-11-18T01:59:18;5.18;;;2.40;;
49758;SDS011;70329;45.524;10.194;2023-11-18T02:01:54;7.03;;;3.08;;
49758;SDS011;70329;45.524;10.194;2023-11-18T02:04:25;6.72;;;2.42;;
49758;SDS011;70329;45.524;10.194;2023-11-18T02:06:52;4.63;;;2.28;;
49758;SDS011;70329;45.524;10.194;2023-11-18T02:09:20;3.45;;;1.60;;
49758;SDS011;70329;45.524;10.194;2023-11-18T02:12:04;4.90;;;1.88;;
49758;SDS011;70329;45.524;10.194;2023-11-18T02:15:03;3.63;;;1.50;;
49758;SDS011;70329;45.524;10.194;2023-11-18T02:17:38;5.35;;;1.85;;
49758;SDS011;70329;45.524;10.194;2023-11-18T02:20:11;4.45;;;1.90;;
49758;SDS011;70329;45.524;10.194;2023-11-18T02:22:47;5.40;;;2.10;;
49758;SDS011;70329;45.524;10.194;2023-11-18T02:25:17;3.75;;;2.10;;
49758;SDS011;70329;45.524;10.194;2023-11-18T02:27:45;5.93;;;2.20;;
49758;SDS011;70329;45.524;10.194;2023-11-18T02:30:12;3.78;;;1.40;;
49758;SDS011;70329;45.524;10.194;2023-11-18T02:32:53;3.90;;;1.73;;
49758;SDS011;70329;45.524;10.194;2023-11-18T02:35:35;2.55;;;1.42;;
49758;SDS011;70329;45.524;10.194;2023-11-18T02:38:07;2.58;;;1.30;;
49758;SDS011;70329;45.524;10.194;2023-11-18T02:40:39;2.95;;;1.23;;
49758;SDS011;70329;45.524;10.194;2023-11-18T02:43:08;3.03;;;1.63;;
49758;SDS011;70329;45.524;10.194;2023-11-18T02:45:35;3.28;;;1.05;;
49758;SDS011;70329;45.524;10.194;2023-11-18T02:48:03;3.53;;;1.40;;
49758;SDS011;70329;45.524;10.194;2023-11-18T02:50:32;3.92;;;1.60;;
49758;SDS011;70329;45.524;10.194;2023-11-18T02:53:01;3.58;;;1.30;;
49758;SDS011;70329;45.524;10.194;2023-11-18T02:55:27;3.90;;;1.50;;
49758;SDS011;70329;45.524;10.194;2023-11-18T02:57:54;5.23;;;1.40;;
49758;SDS011;70329;45.524;10.194;2023-11-18T03:00:20;4.57;;;1.63;;
49758;SDS011;70329;45.524;10.194;2023-11-18T03:02:50;3.53;;;1.25;;
49758;SDS011;70329;45.524;10.194;2023-11-18T03:05:18;2.33;;;1.27;;
49758;SDS011;70329;45.524;10.194;2023-11-18T03:07:45;2.63;;;1.20;;
49758;SDS011;70329;45.524;10.194;2023-11-18T03:10:16;2.42;;;1.30;;
49758;SDS011;70329;45.524;10.194;2023-11-18T03:12:53;4.50;;;1.58;;
49758;SDS011;70329;45.524;10.194;2023-11-18T03:15:20;3.45;;;1.30;;
49758;SDS011;70329;45.524;10.194;2023-11-18T03:17:48;2.65;;;1.23;;
49758;SDS011;70329;45.524;10.194;2023-11-18T03:20:16;3.55;;;1.20;;
49758;SDS011;70329;45.524;10.194;2023-11-18T03:22:44;2.13;;;1.10;;
49758;SDS011;70329;45.524;10.194;2023-11-18T03:25:13;2.60;;;1.00;;
49758;SDS011;70329;45.524;10.194;2023-11-18T03:27:40;1.70;;;0.82;;
49758;SDS011;70329;45.524;10.194;2023-11-18T03:32:36;3.38;;;0.90;;
49758;SDS011;70329;45.524;10.194;2023-11-18T03:35:05;2.60;;;1.58;;
49758;SDS011;70329;45.524;10.194;2023-11-18T03:37:36;2.38;;;1.10;;
49758;SDS011;70329;45.524;10.194;2023-11-18T03:40:11;2.13;;;0.93;;
49758;SDS011;70329;45.524;10.194;2023-11-18T03:42:38;2.22;;;1.10;;
49758;SDS011;70329;45.524;10.194;2023-11-18T03:45:06;4.05;;;1.25;;
49758;SDS011;70329;45.524;10.194;2023-11-18T03:47:33;1.30;;;0.88;;
49758;SDS011;70329;45.524;10.194;2023-11-18T03:52:27;3.70;;;1.33;;
49758;SDS011;70329;45.524;10.194;2023-11-18T03:54:53;3.72;;;1.60;;
49758;SDS011;70329;45.524;10.194;2023-11-18T03:57:23;4.05;;;1.55;;
49758;SDS011;70329;45.524;10.194;2023-11-18T04:02:17;7.82;;;1.50;;
49758;SDS011;70329;45.524;10.194;2023-11-18T04:04:44;3.47;;;1.65;;
49758;SDS011;70329;45.524;10.194;2023-11-18T04:07:10;5.50;;;1.33;;
49758;SDS011;70329;45.524;10.194;2023-11-18T04:12:04;2.67;;;1.00;;
49758;SDS011;70329;45.524;10.194;2023-11-18T04:14:30;2.13;;;1.08;;
49758;SDS011;70329;45.524;10.194;2023-11-18T04:16:56;3.60;;;0.90;;
49758;SDS011;70329;45.524;10.194;2023-11-18T04:19:22;1.75;;;1.20;;
49758;SDS011;70329;45.524;10.194;2023-11-18T04:21:49;1.93;;;0.90;;
49758;SDS011;70329;45.524;10.194;2023-11-18T04:24:16;2.08;;;0.80;;
49758;SDS011;70329;45.524;10.194;2023-11-18T04:26:42;2.17;;;1.00;;
49758;SDS011;70329;45.524;10.194;2023-11-18T04:29:07;3.00;;;1.00;;
49758;SDS011;70329;45.524;10.194;2023-11-18T04:31:34;2.20;;;0.90;;
49758;SDS011;70329;45.524;10.194;2023-11-18T04:36:26;3.05;;;0.90;;
49758;SDS011;70329;45.524;10.194;2023-11-18T04:38:51;1.60;;;0.80;;
49758;SDS011;70329;45.524;10.194;2023-11-18T04:41:19;1.20;;;0.70;;
49758;SDS011;70329;45.524;10.194;2023-11-18T04:46:14;2.63;;;1.00;;
49758;SDS011;70329;45.524;10.194;2023-11-18T04:48:40;2.10;;;1.00;;
49758;SDS011;70329;45.524;10.194;2023-11-18T04:53:33;2.80;;;1.05;;
49758;SDS011;70329;45.524;10.194;2023-11-18T04:56:00;7.18;;;1.40;;
49758;SDS011;70329;45.524;10.194;2023-11-18T04:58:27;2.55;;;1.13;;
49758;SDS011;70329;45.524;10.194;2023-11-18T05:00:53;3.03;;;1.10;;
49758;SDS011;70329;45.524;10.194;2023-11-18T05:05:47;3.25;;;1.00;;
49758;SDS011;70329;45.524;10.194;2023-11-18T05:08:20;5.13;;;2.00;;
49758;SDS011;70329;45.524;10.194;2023-11-18T05:10:47;3.17;;;1.45;;
49758;SDS011;70329;45.524;10.194;2023-11-18T05:13:15;3.67;;;1.80;;
49758;SDS011;70329;45.524;10.194;2023-11-18T05:15:45;4.65;;;1.48;;
49758;SDS011;70329;45.524;10.194;2023-11-18T05:18:13;4.65;;;1.73;;
49758;SDS011;70329;45.524;10.194;2023-11-18T05:20:43;4.63;;;1.60;;
49758;SDS011;70329;45.524;10.194;2023-11-18T05:23:10;3.78;;;1.63;;
49758;SDS011;70329;45.524;10.194;2023-11-18T05:25:41;3.92;;;1.70;;
49758;SDS011;70329;45.524;10.194;2023-11-18T05:28:09;5.50;;;1.60;;
49758;SDS011;70329;45.524;10.194;2023-11-18T05:30:36;3.85;;;1.50;;
49758;SDS011;70329;45.524;10.194;2023-11-18T05:33:03;4.20;;;1.77;;
49758;SDS011;70329;45.524;10.194;2023-11-18T05:35:35;5.18;;;2.47;;
49758;SDS011;70329;45.524;10.194;2023-11-18T05:38:01;6.72;;;2.35;;
49758;SDS011;70329;45.524;10.194;2023-11-18T05:40:29;6.68;;;2.63;;
49758;SDS011;70329;45.524;10.194;2023-11-18T05:42:56;4.25;;;2.30;;
49758;SDS011;70329;45.524;10.194;2023-11-18T05:45:25;5.82;;;1.65;;
49758;SDS011;70329;45.524;10.194;2023-11-18T05:47:57;5.28;;;1.70;;
49758;SDS011;70329;45.524;10.194;2023-11-18T05:50:25;6.57;;;2.92;;
49758;SDS011;70329;45.524;10.194;2023-11-18T05:55:19;3.65;;;1.65;;
49758;SDS011;70329;45.524;10.194;2023-11-18T06:00:12;5.75;;;1.10;;
49758;SDS011;70329;45.524;10.194;2023-11-18T06:02:44;3.92;;;1.00;;
49758;SDS011;70329;45.524;10.194;2023-11-18T06:05:10;1.75;;;1.05;;
49758;SDS011;70329;45.524;10.194;2023-11-18T06:07:39;5.20;;;0.88;;
49758;SDS011;70329;45.524;10.194;2023-11-18T06:10:08;3.80;;;0.80;;
49758;SDS011;70329;45.524;10.194;2023-11-18T06:12:35;1.77;;;0.80;;
49758;SDS011;70329;45.524;10.194;2023-11-18T06:15:02;2.10;;;0.90;;
49758;SDS011;70329;45.524;10.194;2023-11-18T06:17:29;2.83;;;1.10;;
49758;SDS011;70329;45.524;10.194;2023-11-18T06:19:55;1.60;;;0.80;;
49758;SDS011;70329;45.524;10.194;2023-11-18T06:24:48;2.47;;;1.05;;
49758;SDS011;70329;45.524;10.194;2023-11-18T06:27:16;4.82;;;1.10;;
49758;SDS011;70329;45.524;10.194;2023-11-18T06:29:43;3.00;;;1.10;;
49758;SDS011;70329;45.524;10.194;2023-11-18T06:32:11;4.72;;;1.20;;
49758;SDS011;70329;45.524;10.194;2023-11-18T06:34:38;3.30;;;1.38;;
49758;SDS011;70329;45.524;10.194;2023-11-18T06:37:05;3.78;;;1.23;;
49758;SDS011;70329;45.524;10.194;2023-11-18T06:39:33;4.15;;;1.80;;
49758;SDS011;70329;45.524;10.194;2023-11-18T06:42:05;3.13;;;1.00;;
49758;SDS011;70329;45.524;10.194;2023-11-18T06:44:37;3.30;;;1.00;;
49758;SDS011;70329;45.524;10.194;2023-11-18T06:47:04;3.42;;;1.10;;
49758;SDS011;70329;45.524;10.194;2023-11-18T06:49:33;4.95;;;1.38;;
49758;SDS011;70329;45.524;10.194;2023-11-18T06:52:03;4.50;;;1.70;;
49758;SDS011;70329;45.524;10.194;2023-11-18T06:56:59;3.80;;;1.23;;
49758;SDS011;70329;45.524;10.194;2023-11-18T06:59:26;3.38;;;1.20;;
49758;SDS011;70329;45.524;10.194;2023-11-18T07:01:53;13.63;;;4.38;;
49758;SDS011;70329;45.524;10.194;2023-11-18T07:06:46;13.95;;;2.70;;
49758;SDS011;70329;45.524;10.194;2023-11-18T07:09:13;7.18;;;2.67;;
49758;SDS011;70329;45.524;10.194;2023-11-18T07:11:43;9.60;;;2.33;;
49758;SDS011;70329;45.524;10.194;2023-11-18T07:14:10;5.35;;;1.63;;
49758;SDS011;70329;45.524;10.194;2023-11-18T07:16:38;4.22;;;1.25;;
49758;SDS011;70329;45.524;10.194;2023-11-18T07:19:05;2.88;;;1.30;;
49758;SDS011;70329;45.524;10.194;2023-11-18T07:21:33;4.70;;;1.30;;
49758;SDS011;70329;45.524;10.194;2023-11-18T07:24:00;9.38;;;2.83;;
49758;SDS011;70329;45.524;10.194;2023-11-18T07:26:29;11.57;;;3.50;;
49758;SDS011;70329;45.524;10.194;2023-11-18T07:28:55;5.13;;;2.28;;
49758;SDS011;70329;45.524;10.194;2023-11-18T07:31:22;3.15;;;1.30;;
49758;SDS011;70329;45.524;10.194;2023-11-18T07:33:47;3.80;;;1.17;;
49758;SDS011;70329;45.524;10.194;2023-11-18T07:36:17;5.68;;;1.20;;
49758;SDS011;70329;45.524;10.194;2023-11-18T07:38:45;1.75;;;0.80;;
49758;SDS011;70329;45.524;10.194;2023-11-18T07:41:14;5.68;;;1.40;;
49758;SDS011;70329;45.524;10.194;2023-11-18T07:43:52;5.65;;;1.30;;
49758;SDS011;70329;45.524;10.194;2023-11-18T07:46:19;3.97;;;1.08;;
49758;SDS011;70329;45.524;10.194;2023-11-18T07:48:48;7.50;;;1.23;;
49758;SDS011;70329;45.524;10.194;2023-11-18T07:51:21;6.43;;;1.42;;
49758;SDS011;70329;45.524;10.194;2023-11-18T07:53:49;2.60;;;1.17;;
49758;SDS011;70329;45.524;10.194;2023-11-18T07:56:17;4.65;;;1.27;;
49758;SDS011;70329;45.524;10.194;2023-11-18T07:58:43;3.70;;;1.70;;
49758;SDS011;70329;45.524;10.194;2023-11-18T08:01:13;4.35;;;2.00;;
49758;SDS011;70329;45.524;10.194;2023-11-18T08:03:43;5.70;;;1.90;;
49758;SDS011;70329;45.524;10.194;2023-11-18T08:06:10;3.17;;;1.27;;
49758;SDS011;70329;45.524;10.194;2023-11-18T08:08:38;5.65;;;1.38;;
49758;SDS011;70329;45.524;10.194;2023-11-18T08:11:05;5.03;;;1.42;;
49758;SDS011;70329;45.524;10.194;2023-11-18T08:13:33;2.22;;;1.25;;
49758;SDS011;70329;45.524;10.194;2023-11-18T08:16:00;5.13;;;1.45;;
49758;SDS011;70329;45.524;10.194;2023-11-18T08:18:27;5.85;;;1.67;;
49758;SDS011;70329;45.524;10.194;2023-11-18T08:20:55;4.63;;;1.50;;
49758;SDS011;70329;45.524;10.194;2023-11-18T08:23:22;5.13;;;1.40;;
49758;SDS011;70329;45.524;10.194;2023-11-18T08:25:49;4.45;;;1.20;;
49758;SDS011;70329;45.524;10.194;2023-11-18T08:28:17;5.68;;;1.90;;
49758;SDS011;70329;45.524;10.194;2023-11-18T08:30:44;8.18;;;1.42;;
49758;SDS011;70329;45.524;10.194;2023-11-18T08:33:10;4.85;;;1.58;;
49758;SDS011;70329;45.524;10.194;2023-11-18T08:35:37;5.57;;;2.17;;
49758;SDS011;70329;45.524;10.194;2023-11-18T08:38:04;5.43;;;2.38;;
49758;SDS011;70329;45.524;10.194;2023-11-18T08:40:33;3.55;;;1.45;;
49758;SDS011;70329;45.524;10.194;2023-11-18T08:42:59;3.33;;;1.80;;
49758;SDS011;70329;45.524;10.194;2023-11-18T08:47:59;5.85;;;1.33;;
49758;SDS011;70329;45.524;10.194;2023-11-18T08:50:37;4.65;;;1.35;;
49758;SDS011;70329;45.524;10.194;2023-11-18T08:53:07;4.78;;;1.50;;
49758;SDS011;70329;45.524;10.194;2023-11-18T08:55:35;6.20;;;1.50;;
49758;SDS011;70329;45.524;10.194;2023-11-18T08:58:05;6.63;;;2.58;;
49758;SDS011;70329;45.524;10.194;2023-11-18T09:00:42;13.32;;;4.90;;
49758;SDS011;70329;45.524;10.194;2023-11-18T09:03:12;2.95;;;1.50;;
49758;SDS011;70329;45.524;10.194;2023-11-18T09:06:06;7.03;;;1.63;;
49758;SDS011;70329;45.524;10.194;2023-11-18T09:08:42;5.05;;;1.60;;
49758;SDS011;70329;45.524;10.194;2023-11-18T09:11:09;2.27;;;1.30;;
49758;SDS011;70329;45.524;10.194;2023-11-18T09:13:41;4.32;;;1.50;;
49758;SDS011;70329;45.524;10.194;2023-11-18T09:16:11;2.03;;;0.98;;
49758;SDS011;70329;45.524;10.194;2023-11-18T09:18:42;2.90;;;1.08;;
49758;SDS011;70329;45.524;10.194;2023-11-18T09:21:10;4.65;;;2.25;;
49758;SDS011;70329;45.524;10.194;2023-11-18T09:23:41;3.25;;;1.35;;
49758;SDS011;70329;45.524;10.194;2023-11-18T09:26:08;3.65;;;1.13;;
49758;SDS011;70329;45.524;10.194;2023-11-18T09:28:36;1.90;;;1.10;;
49758;SDS011;70329;45.524;10.194;2023-11-18T09:31:04;2.63;;;1.30;;
49758;SDS011;70329;45.524;10.194;2023-11-18T09:33:32;2.90;;;1.15;;
49758;SDS011;70329;45.524;10.194;2023-11-18T09:38:30;2.00;;;1.00;;
49758;SDS011;70329;45.524;10.194;2023-11-18T09:40:59;4.00;;;1.23;;
49758;SDS011;70329;45.524;10.194;2023-11-18T09:43:29;3.83;;;1.25;;
49758;SDS011;70329;45.524;10.194;2023-11-18T09:46:28;3.47;;;0.98;;
49758;SDS011;70329;45.524;10.194;2023-11-18T09:49:09;4.47;;;1.90;;
49758;SDS011;70329;45.524;10.194;2023-11-18T10:00:22;2.60;;;1.10;;
49758;SDS011;70329;45.524;10.194;2023-11-18T10:03:11;3.50;;;1.48;;
49758;SDS011;70329;45.524;10.194;2023-11-18T10:05:41;1.73;;;0.90;;
49758;SDS011;70329;45.524;10.194;2023-11-18T10:08:10;2.47;;;1.10;;
49758;SDS011;70329;45.524;10.194;2023-11-18T10:13:03;2.43;;;1.10;;
49758;SDS011;70329;45.524;10.194;2023-11-18T10:15:34;6.10;;;1.50;;
49758;SDS011;70329;45.524;10.194;2023-11-18T10:18:02;6.00;;;2.10;;
49758;SDS011;70329;45.524;10.194;2023-11-18T10:20:46;3.38;;;1.80;;
49758;SDS011;70329;45.524;10.194;2023-11-18T10:23:15;3.40;;;2.10;;
49758;SDS011;70329;45.524;10.194;2023-11-18T10:25:55;6.28;;;2.20;;
49758;SDS011;70329;45.524;10.194;2023-11-18T10:28:28;4.22;;;2.20;;
49758;SDS011;70329;45.524;10.194;2023-11-18T10:31:01;6.40;;;2.60;;
49758;SDS011;70329;45.524;10.194;2023-11-18T10:33:41;7.60;;;3.10;;
49758;SDS011;70329;45.524;10.194;2023-11-18T10:36:16;5.63;;;3.10;;
49758;SDS011;70329;45.524;10.194;2023-11-18T10:38:48;6.40;;;3.10;;
49758;SDS011;70329;45.524;10.194;2023-11-18T10:41:20;8.13;;;3.38;;
49758;SDS011;70329;45.524;10.194;2023-11-18T10:43:46;6.28;;;3.10;;
49758;SDS011;70329;45.524;10.194;2023-11-18T10:46:15;6.85;;;3.63;;
49758;SDS011;70329;45.524;10.194;2023-11-18T10:48:44;7.05;;;3.40;;
49758;SDS011;70329;45.524;10.194;2023-11-18T10:51:15;9.93;;;3.53;;
49758;SDS011;70329;45.524;10.194;2023-11-18T10:53:44;9.00;;;3.50;;
49758;SDS011;70329;45.524;10.194;2023-11-18T10:56:22;8.07;;;4.15;;
49758;SDS011;70329;45.524;10.194;2023-11-18T10:59:10;10.95;;;3.50;;
49758;SDS011;70329;45.524;10.194;2023-11-18T11:01:42;8.43;;;3.75;;
49758;SDS011;70329;45.524;10.194;2023-11-18T11:04:10;12.02;;;3.78;;
49758;SDS011;70329;45.524;10.194;2023-11-18T11:06:41;9.27;;;3.78;;
49758;SDS011;70329;45.524;10.194;2023-11-18T11:09:23;12.02;;;3.92;;
49758;SDS011;70329;45.524;10.194;2023-11-18T11:11:55;9.10;;;4.38;;
49758;SDS011;70329;45.524;10.194;2023-11-18T11:14:32;10.07;;;4.60;;
49758;SDS011;70329;45.524;10.194;2023-11-18T11:17:05;7.78;;;3.35;;
49758;SDS011;70329;45.524;10.194;2023-11-18T11:19:58;10.23;;;3.67;;
49758;SDS011;70329;45.524;10.194;2023-11-18T11:26:18;6.15;;;3.10;;
49758;SDS011;70329;45.524;10.194;2023-11-18T11:32:38;6.00;;;2.55;;
49758;SDS011;70329;45.524;10.194;2023-11-18T11:34:59;9.05;;;3.10;;
49758;SDS011;70329;45.524;10.194;2023-11-18T11:37:34;8.48;;;2.92;;
49758;SDS011;70329;45.524;10.194;2023-11-18T11:40:03;8.35;;;3.17;;
49758;SDS011;70329;45.524;10.194;2023-11-18T11:42:34;9.15;;;3.30;;
49758;SDS011;70329;45.524;10.194;2023-11-18T11:45:00;6.13;;;2.60;;
49758;SDS011;70329;45.524;10.194;2023-11-18T11:47:29;5.13;;;2.92;;
49758;SDS011;70329;45.524;10.194;2023-11-18T11:50:13;8.68;;;3.10;;
49758;SDS011;70329;45.524;10.194;2023-11-18T11:52:48;9.15;;;3.50;;
49758;SDS011;70329;45.524;10.194;2023-11-18T11:55:29;8.40;;;3.60;;
49758;SDS011;70329;45.524;10.194;2023-11-18T11:58:03;7.93;;;3.70;;
49758;SDS011;70329;45.524;10.194;2023-11-18T12:00:32;6.90;;;3.40;;
49758;SDS011;70329;45.524;10.194;2023-11-18T12:03:01;7.63;;;3.38;;
49758;SDS011;70329;45.524;10.194;2023-11-18T12:05:30;7.03;;;3.08;;
49758;SDS011;70329;45.524;10.194;2023-11-18T12:07:59;14.40;;;3.65;;
49758;SDS011;70329;45.524;10.194;2023-11-18T12:13:10;7.68;;;3.47;;
49758;SDS011;70329;45.524;10.194;2023-11-18T12:15:54;12.15;;;3.50;;
49758;SDS011;70329;45.524;10.194;2023-11-18T12:18:32;6.90;;;3.40;;
49758;SDS011;70329;45.524;10.194;2023-11-18T12:21:00;5.70;;;3.83;;
49758;SDS011;70329;45.524;10.194;2023-11-18T12:23:30;7.80;;;3.97;;
49758;SDS011;70329;45.524;10.194;2023-11-18T12:25:59;11.25;;;3.88;;
49758;SDS011;70329;45.524;10.194;2023-11-18T12:28:26;12.05;;;3.40;;
49758;SDS011;70329;45.524;10.194;2023-11-18T12:30:57;6.43;;;3.10;;
49758;SDS011;70329;45.524;10.194;2023-11-18T12:33:26;9.23;;;3.67;;
49758;SDS011;70329;45.524;10.194;2023-11-18T12:47:51;8.45;;;3.55;;
49758;SDS011;70329;45.524;10.194;2023-11-18T12:50:21;10.75;;;4.47;;
49758;SDS011;70329;45.524;10.194;2023-11-18T12:52:54;13.57;;;4.10;;
49758;SDS011;70329;45.524;10.194;2023-11-18T12:55:23;9.75;;;4.35;;
49758;SDS011;70329;45.524;10.194;2023-11-18T12:57:52;7.15;;;4.22;;
49758;SDS011;70329;45.524;10.194;2023-11-18T13:00:20;6.13;;;3.10;;
49758;SDS011;70329;45.524;10.194;2023-11-18T13:02:54;6.20;;;3.42;;
49758;SDS011;70329;45.524;10.194;2023-11-18T13:05:20;6.03;;;3.15;;
49758;SDS011;70329;45.524;10.194;2023-11-18T13:07:46;5.85;;;2.50;;
49758;SDS011;70329;45.524;10.194;2023-11-18T13:10:16;4.50;;;2.40;;
49758;SDS011;70329;45.524;10.194;2023-11-18T13:12:42;5.97;;;2.78;;
49758;SDS011;70329;45.524;10.194;2023-11-18T13:15:12;4.30;;;2.33;;
49758;SDS011;70329;45.524;10.194;2023-11-18T13:17:38;5.60;;;2.40;;
49758;SDS011;70329;45.524;10.194;2023-11-18T13:20:12;5.00;;;2.58;;
49758;SDS011;70329;45.524;10.194;2023-11-18T13:22:38;6.53;;;2.90;;
49758;SDS011;70329;45.524;10.194;2023-11-18T13:25:04;5.13;;;2.63;;
49758;SDS011;70329;45.524;10.194;2023-11-18T13:27:30;4.47;;;2.78;;
49758;SDS011;70329;45.524;10.194;2023-11-18T13:29:58;6.53;;;2.47;;
49758;SDS011;70329;45.524;10.194;2023-11-18T13:32:25;5.50;;;2.80;;
49758;SDS011;70329;45.524;10.194;2023-11-18T13:34:53;5.43;;;2.88;;
49758;SDS011;70329;45.524;10.194;2023-11-18T13:37:20;4.18;;;2.30;;
49758;SDS011;70329;45.524;10.194;2023-11-18T13:39:57;4.10;;;2.47;;
49758;SDS011;70329;45.524;10.194;2023-11-18T13:42:27;3.80;;;2.30;;
49758;SDS011;70329;45.524;10.194;2023-11-18T13:45:04;8.82;;;2.60;;
49758;SDS011;70329;45.524;10.194;2023-11-18T13:47:50;3.83;;;2.33;;
49758;SDS011;70329;45.524;10.194;2023-11-18T13:50:17;4.25;;;2.08;;
49758;SDS011;70329;45.524;10.194;2023-11-18T13:52:44;3.95;;;2.20;;
49758;SDS011;70329;45.524;10.194;2023-11-18T13:55:11;4.60;;;2.15;;
49758;SDS011;70329;45.524;10.194;2023-11-18T13:57:42;6.60;;;2.30;;
49758;SDS011;70329;45.524;10.194;2023-11-18T14:02:41;3.92;;;2.17;;
49758;SDS011;70329;45.524;10.194;2023-11-18T14:05:17;4.07;;;2.30;;
49758;SDS011;70329;45.524;10.194;2023-11-18T14:07:45;4.05;;;2.58;;
49758;SDS011;70329;45.524;10.194;2023-11-18T14:10:14;3.40;;;2.10;;
49758;SDS011;70329;45.524;10.194;2023-11-18T14:12:57;3.80;;;2.30;;
49758;SDS011;70329;45.524;10.194;2023-11-18T14:15:29;4.93;;;2.53;;
49758;SDS011;70329;45.524;10.194;2023-11-18T14:17:56;6.35;;;2.58;;
49758;SDS011;70329;45.524;10.194;2023-11-18T14:20:23;4.40;;;2.83;;
49758;SDS011;70329;45.524;10.194;2023-11-18T14:25:18;6.95;;;2.63;;
49758;SDS011;70329;45.524;10.194;2023-11-18T14:27:48;4.85;;;2.30;;
49758;SDS011;70329;45.524;10.194;2023-11-18T14:30:15;3.53;;;2.35;;
49758;SDS011;70329;45.524;10.194;2023-11-18T14:32:47;5.22;;;2.75;;
49758;SDS011;70329;45.524;10.194;2023-11-18T14:35:13;5.70;;;2.70;;
49758;SDS011;70329;45.524;10.194;2023-11-18T14:37:43;4.68;;;2.35;;
49758;SDS011;70329;45.524;10.194;2023-11-18T14:40:11;6.28;;;2.60;;
49758;SDS011;70329;45.524;10.194;2023-11-18T14:42:49;7.32;;;2.75;;
49758;SDS011;70329;45.524;10.194;2023-11-18T14:45:17;3.67;;;2.30;;
49758;SDS011;70329;45.524;10.194;2023-11-18T14:47:44;4.75;;;2.60;;
49758;SDS011;70329;45.524;10.194;2023-11-18T14:50:14;6.22;;;3.08;;
49758;SDS011;70329;45.524;10.194;2023-11-18T14:52:48;4.85;;;2.65;;
49758;SDS011;70329;45.524;10.194;2023-11-18T14:55:18;5.30;;;2.60;;
49758;SDS011;70329;45.524;10.194;2023-11-18T14:57:45;4.22;;;2.83;;
49758;SDS011;70329;45.524;10.194;2023-11-18T15:00:13;6.15;;;2.85;;
49758;SDS011;70329;45.524;10.194;2023-11-18T15:02:48;4.47;;;2.67;;
49758;SDS011;70329;45.524;10.194;2023-11-18T15:05:16;5.20;;;2.83;;
49758;SDS011;70329;45.524;10.194;2023-11-18T15:07:48;4.47;;;2.60;;
49758;SDS011;70329;45.524;10.194;2023-11-18T15:10:19;4.28;;;2.47;;
49758;SDS011;70329;45.524;10.194;2023-11-18T15:12:49;4.53;;;3.13;;
49758;SDS011;70329;45.524;10.194;2023-11-18T15:15:25;4.55;;;2.90;;
49758;SDS011;70329;45.524;10.194;2023-11-18T15:18:01;5.53;;;2.70;;
49758;SDS011;70329;45.524;10.194;2023-11-18T15:20:30;6.05;;;2.95;;
49758;SDS011;70329;45.524;10.194;2023-11-18T15:22:56;5.82;;;2.72;;
49758;SDS011;70329;45.524;10.194;2023-11-18T15:25:21;6.03;;;3.00;;
49758;SDS011;70329;45.524;10.194;2023-11-18T15:27:47;5.37;;;3.33;;
49758;SDS011;70329;45.524;10.194;2023-11-18T15:30:16;6.10;;;3.25;;
49758;SDS011;70329;45.524;10.194;2023-11-18T15:32:44;7.07;;;2.90;;
49758;SDS011;70329;45.524;10.194;2023-11-18T15:35:10;4.97;;;2.95;;
49758;SDS011;70329;45.524;10.194;2023-11-18T15:37:39;6.45;;;3.38;;
49758;SDS011;70329;45.524;10.194;2023-11-18T15:40:13;6.22;;;3.38;;
49758;SDS011;70329;45.524;10.194;2023-11-18T15:42:44;6.53;;;3.38;;
49758;SDS011;70329;45.524;10.194;2023-11-18T15:45:18;5.85;;;2.85;;
49758;SDS011;70329;45.524;10.194;2023-11-18T15:47:46;5.68;;;2.90;;
49758;SDS011;70329;45.524;10.194;2023-11-18T15:50:14;5.68;;;3.60;;
49758;SDS011;70329;45.524;10.194;2023-11-18T15:52:42;6.70;;;3.42;;
49758;SDS011;70329;45.524;10.194;2023-11-18T15:55:10;6.53;;;3.70;;
49758;SDS011;70329;45.524;10.194;2023-11-18T15:57:46;8.32;;;3.83;;
49758;SDS011;70329;45.524;10.194;2023-11-18T16:00:19;7.32;;;3.67;;
49758;SDS011;70329;45.524;10.194;2023-11-18T16:02:49;8.23;;;4.05;;
49758;SDS011;70329;45.524;10.194;2023-11-18T16:05:18;8.25;;;3.75;;
49758;SDS011;70329;45.524;10.194;2023-11-18T16:07:48;5.88;;;3.67;;
49758;SDS011;70329;45.524;10.194;2023-11-18T16:10:17;6.82;;;3.47;;
49758;SDS011;70329;45.524;10.194;2023-11-18T16:12:54;8.43;;;4.05;;
49758;SDS011;70329;45.524;10.194;2023-11-18T16:15:22;7.88;;;3.78;;